Time;durP1;ratioP1;P1;durP2;ratioP2;P2;SDS_P1;SDS_P2;PMS_P1;PMS_P2;Temp;Humidity;BMP_temperature;BMP_pressure;BME280_temperature;BME280_humidity;BME280_pressure;Samples;Min_cycle;Max_cycle;Signal;HPM_P1;HPM_P2
2023/08/15 00:02:16;;;;;;;10.18;4.85;;;18.60;99.90;;;;;;5040116;28;20141;-72
2023/08/15 00:04:41;;;;;;;10.05;4.38;;;18.60;99.90;;;;;;5038451;28;20054;-72
2023/08/15 00:07:07;;;;;;;9.18;5.00;;;18.60;99.90;;;;;;5037803;28;20032;-72
2023/08/15 00:09:33;;;;;;;6.35;4.80;;;18.60;99.90;;;;;;5019467;28;20040;-72
2023/08/15 00:11:59;;;;;;;7.13;4.13;;;18.50;99.90;;;;;;5034557;28;20044;-73
2023/08/15 00:14:25;;;;;;;12.48;5.80;;;18.60;99.90;;;;;;5040208;28;20041;-73
2023/08/15 00:16:52;;;;;;;7.85;4.53;;;18.60;99.90;;;;;;5063223;28;20038;-73
2023/08/15 00:19:18;;;;;;;8.57;5.43;;;18.60;99.90;;;;;;5044962;28;20488;-73
2023/08/15 00:21:43;;;;;;;8.43;5.10;;;18.50;99.90;;;;;;5056675;28;20052;-73
2023/08/15 00:24:09;;;;;;;6.72;4.90;;;18.50;99.90;;;;;;5070994;28;20068;-73
2023/08/15 00:26:35;;;;;;;8.35;4.93;;;18.50;99.90;;;;;;5026339;28;20138;-73
2023/08/15 00:29:01;;;;;;;9.13;4.90;;;18.50;99.90;;;;;;5041486;28;20045;-73
2023/08/15 00:31:26;;;;;;;9.30;5.10;;;18.50;99.90;;;;;;5025970;28;20036;-73
2023/08/15 00:33:52;;;;;;;10.15;4.93;;;18.40;99.90;;;;;;5036310;28;20107;-73
2023/08/15 00:36:18;;;;;;;9.27;4.95;;;18.50;99.90;;;;;;5024657;28;20052;-73
2023/08/15 00:38:43;;;;;;;13.10;5.10;;;18.40;99.90;;;;;;5038158;28;20140;-73
2023/08/15 00:41:10;;;;;;;7.10;5.60;;;18.40;99.90;;;;;;5040513;28;20697;-72
2023/08/15 00:43:36;;;;;;;10.15;5.60;;;18.40;99.90;;;;;;5023122;28;20049;-73
2023/08/15 00:46:03;;;;;;;8.65;6.32;;;18.40;99.90;;;;;;5054941;28;20033;-73
2023/08/15 00:48:31;;;;;;;12.85;7.05;;;18.40;99.90;;;;;;5020780;28;20034;-73
2023/08/15 00:51:00;;;;;;;11.32;6.47;;;18.40;99.90;;;;;;5067207;28;20036;-73
2023/08/15 00:53:28;;;;;;;12.70;7.20;;;18.40;99.90;;;;;;5042748;28;20520;-73
2023/08/15 00:55:57;;;;;;;9.65;6.90;;;18.40;99.90;;;;;;5053490;28;20046;-73
2023/08/15 00:58:23;;;;;;;12.27;7.32;;;18.40;99.90;;;;;;5039590;28;20033;-73
2023/08/15 01:00:50;;;;;;;11.88;7.43;;;18.40;99.90;;;;;;5042695;28;20045;-73
2023/08/15 01:03:16;;;;;;;11.27;7.13;;;18.40;99.90;;;;;;5070607;28;20041;-73
2023/08/15 01:05:43;;;;;;;10.50;7.28;;;18.40;99.90;;;;;;5022982;28;20405;-73
2023/08/15 01:08:09;;;;;;;11.55;7.43;;;18.30;99.90;;;;;;5056354;28;20117;-73
2023/08/15 01:10:38;;;;;;;12.25;7.63;;;18.30;99.90;;;;;;5023690;28;20111;-73
2023/08/15 01:13:29;;;;;;;8.98;7.00;;;18.30;99.90;;;;;;5039117;28;20038;-73
2023/08/15 01:15:55;;;;;;;11.55;8.10;;;18.30;99.90;;;;;;5024575;28;20490;-73
2023/08/15 01:18:45;;;;;;;14.40;8.13;;;18.20;99.90;;;;;;5041504;28;20128;-73
2023/08/15 01:21:14;;;;;;;11.18;7.55;;;18.20;99.90;;;;;;5042427;28;20504;-73
2023/08/15 01:23:44;;;;;;;13.85;8.68;;;18.20;99.90;;;;;;5049913;28;20048;-73
2023/08/15 01:26:10;;;;;;;15.15;8.98;;;18.20;99.90;;;;;;5057811;28;20502;-73
2023/08/15 01:28:38;;;;;;;10.77;7.60;;;18.20;99.90;;;;;;5038810;28;20053;-73
2023/08/15 01:31:32;;;;;;;11.82;8.15;;;18.20;99.90;;;;;;5059496;28;20041;-73
2023/08/15 01:34:21;;;;;;;14.82;8.38;;;18.10;99.90;;;;;;5041014;28;20112;-73
2023/08/15 01:36:53;;;;;;;14.80;9.77;;;18.20;99.90;;;;;;5038010;28;20512;-69
2023/08/15 01:39:27;;;;;;;14.00;9.00;;;18.20;99.90;;;;;;5039829;28;20063;-69
2023/08/15 01:41:56;;;;;;;13.38;9.52;;;18.20;99.90;;;;;;5035199;28;20113;-70
2023/08/15 01:44:23;;;;;;;13.38;10.07;;;18.10;99.90;;;;;;5041759;28;20037;-69
2023/08/15 01:46:49;;;;;;;12.70;9.13;;;18.10;99.90;;;;;;5027549;28;20371;-69
2023/08/15 01:49:15;;;;;;;18.65;10.30;;;18.10;99.90;;;;;;5043176;28;20044;-70
2023/08/15 01:51:40;;;;;;;16.33;10.75;;;18.10;99.90;;;;;;5027428;28;20072;-69
2023/08/15 01:54:09;;;;;;;17.23;10.77;;;18.10;99.90;;;;;;5044849;28;20033;-69
2023/08/15 01:56:34;;;;;;;15.30;10.27;;;18.10;99.90;;;;;;5021666;28;20064;-70
2023/08/15 01:59:00;;;;;;;16.80;10.15;;;18.10;99.90;;;;;;5037825;28;20087;-70
2023/08/15 02:01:26;;;;;;;21.85;9.52;;;18.20;99.90;;;;;;5027375;28;20120;-70
2023/08/15 02:03:51;;;;;;;15.48;9.48;;;18.20;99.90;;;;;;5056121;28;20413;-70
2023/08/15 02:06:17;;;;;;;17.05;9.57;;;18.20;99.90;;;;;;5039886;28;20040;-70
2023/08/15 02:08:43;;;;;;;15.55;10.85;;;18.10;99.90;;;;;;5059513;28;20490;-70
2023/08/15 02:11:08;;;;;;;16.30;9.10;;;18.10;99.90;;;;;;5074453;28;20033;-70
2023/08/15 02:13:34;;;;;;;18.55;10.85;;;18.10;99.90;;;;;;5019587;28;20080;-70
2023/08/15 02:16:00;;;;;;;16.67;11.63;;;18.10;99.90;;;;;;5073459;28;20410;-70
2023/08/15 02:18:29;;;;;;;16.63;10.90;;;18.10;99.90;;;;;;5024926;28;20067;-70
2023/08/15 02:20:55;;;;;;;16.23;10.40;;;18.20;99.90;;;;;;5056685;28;20449;-70
2023/08/15 02:23:21;;;;;;;16.73;11.13;;;18.10;99.90;;;;;;5033030;28;20045;-70
2023/08/15 02:25:47;;;;;;;17.85;10.40;;;18.10;99.90;;;;;;5068473;28;20586;-69
2023/08/15 02:28:13;;;;;;;14.52;11.05;;;18.10;99.90;;;;;;5040679;28;20124;-70
2023/08/15 02:30:39;;;;;;;15.80;11.68;;;18.10;99.90;;;;;;5060402;28;20036;-70
2023/08/15 02:33:05;;;;;;;17.02;13.05;;;18.10;99.90;;;;;;5013940;28;20072;-70
2023/08/15 02:35:31;;;;;;;14.30;11.23;;;18.10;99.90;;;;;;5042075;28;20044;-70
2023/08/15 02:37:57;;;;;;;20.15;12.70;;;18.10;99.90;;;;;;5038338;28;20098;-72
2023/08/15 02:40:25;;;;;;;17.88;11.23;;;18.10;99.90;;;;;;5058470;28;20037;-70
2023/08/15 02:42:51;;;;;;;19.67;12.50;;;18.10;99.90;;;;;;5040252;28;20047;-70
2023/08/15 02:45:17;;;;;;;19.08;12.43;;;18.10;99.90;;;;;;5039207;28;20041;-70
2023/08/15 02:47:42;;;;;;;15.93;12.10;;;18.20;99.90;;;;;;5040802;28;20041;-70
2023/08/15 02:50:08;;;;;;;17.70;11.65;;;18.20;99.90;;;;;;5038894;28;20040;-70
2023/08/15 02:52:34;;;;;;;17.23;12.38;;;18.10;99.90;;;;;;5051336;28;20065;-69
2023/08/15 02:55:00;;;;;;;16.23;11.98;;;18.20;99.90;;;;;;5025132;28;20048;-70
2023/08/15 02:57:25;;;;;;;17.02;12.00;;;18.20;99.90;;;;;;5023341;28;20045;-70
2023/08/15 02:59:51;;;;;;;19.63;12.98;;;18.20;99.90;;;;;;5023872;28;20402;-70
2023/08/15 03:02:19;;;;;;;19.38;12.57;;;18.20;99.90;;;;;;5070462;28;20521;-70
2023/08/15 03:04:45;;;;;;;22.60;13.20;;;18.30;99.90;;;;;;5040966;28;20028;-70
2023/08/15 03:07:11;;;;;;;17.05;12.27;;;18.30;99.90;;;;;;5067937;28;20403;-70
2023/08/15 03:09:36;;;;;;;15.77;11.93;;;18.30;99.90;;;;;;5039245;28;20037;-70
2023/08/15 03:12:02;;;;;;;15.75;12.68;;;18.30;99.90;;;;;;5024166;28;20044;-70
2023/08/15 03:14:29;;;;;;;21.13;13.07;;;18.30;99.90;;;;;;5025973;28;20048;-70
2023/08/15 03:16:55;;;;;;;17.08;12.95;;;18.30;99.90;;;;;;5023480;28;20040;-70
2023/08/15 03:19:23;;;;;;;18.30;13.40;;;18.30;99.90;;;;;;5007279;28;20052;-70
2023/08/15 03:21:49;;;;;;;16.27;12.82;;;18.40;99.90;;;;;;5041328;28;20037;-70
2023/08/15 03:24:15;;;;;;;18.92;13.65;;;18.40;99.90;;;;;;5050973;28;20463;-70
2023/08/15 03:26:42;;;;;;;19.98;14.02;;;18.40;99.90;;;;;;5054546;28;20140;-70
2023/08/15 03:29:08;;;;;;;16.67;12.48;;;18.50;99.90;;;;;;5053711;28;20037;-70
2023/08/15 03:31:34;;;;;;;22.30;13.35;;;18.50;99.90;;;;;;5039135;28;20039;-70
2023/08/15 03:33:59;;;;;;;15.38;12.35;;;18.50;99.90;;;;;;5071103;28;20517;-70
2023/08/15 03:36:25;;;;;;;19.30;13.32;;;18.50;99.90;;;;;;5025582;28;20146;-70
2023/08/15 03:38:52;;;;;;;21.70;13.68;;;18.60;99.90;;;;;;5071464;28;20058;-70
2023/08/15 03:41:18;;;;;;;17.77;13.60;;;18.60;99.90;;;;;;5039532;28;20112;-70
2023/08/15 03:43:44;;;;;;;20.10;13.82;;;18.70;99.90;;;;;;5021323;28;20161;-70
2023/08/15 03:46:10;;;;;;;18.55;13.18;;;18.60;99.90;;;;;;5043937;28;20036;-70
2023/08/15 03:48:36;;;;;;;16.52;12.52;;;18.70;99.90;;;;;;5056725;28;20037;-70
2023/08/15 03:51:02;;;;;;;14.90;11.95;;;18.70;99.90;;;;;;5040529;28;20037;-70
2023/08/15 03:53:28;;;;;;;17.20;13.13;;;18.70;99.90;;;;;;5041068;28;20564;-70
2023/08/15 03:55:55;;;;;;;19.55;13.02;;;18.80;99.90;;;;;;5045219;28;20099;-70
2023/08/15 03:58:21;;;;;;;16.33;11.88;;;18.80;99.90;;;;;;5071341;28;20041;-69
2023/08/15 04:00:48;;;;;;;20.48;13.20;;;18.80;99.90;;;;;;5024766;28;20096;-70
2023/08/15 04:03:15;;;;;;;18.52;12.50;;;18.80;99.90;;;;;;5040846;28;20033;-70
2023/08/15 04:05:45;;;;;;;22.38;12.60;;;18.90;99.90;;;;;;5045236;28;20034;-78
2023/08/15 04:08:11;;;;;;;16.75;11.85;;;18.90;99.90;;;;;;5057576;28;20063;-78
2023/08/15 04:10:39;;;;;;;16.02;12.43;;;18.90;99.90;;;;;;5022229;28;20037;-78
2023/08/15 04:13:12;;;;;;;15.93;11.07;;;19.00;99.90;;;;;;5021977;28;20132;-78
2023/08/15 04:15:37;;;;;;;;;;;19.00;99.90;;;;;;5027360;28;20127;-78
2023/08/15 04:18:08;;;;;;;18.67;12.90;;;19.00;99.90;;;;;;5039633;28;20454;-78
2023/08/15 04:20:41;;;;;;;15.07;10.80;;;19.00;99.90;;;;;;5040075;28;20041;-78
2023/08/15 04:23:08;;;;;;;16.80;11.88;;;19.10;99.90;;;;;;5041173;28;20119;-77
2023/08/15 04:25:34;;;;;;;14.30;11.93;;;19.10;99.90;;;;;;5021002;28;20167;-75
2023/08/15 04:28:01;;;;;;;16.30;13.05;;;19.10;99.90;;;;;;5040609;28;20505;-75
2023/08/15 04:30:27;;;;;;;20.70;13.30;;;19.10;99.90;;;;;;5068820;28;20048;-75
2023/08/15 04:32:53;;;;;;;18.10;13.70;;;19.10;99.90;;;;;;5035271;28;20037;-76
2023/08/15 04:35:18;;;;;;;19.42;13.23;;;19.10;99.90;;;;;;5020861;28;20107;-76
2023/08/15 04:37:44;;;;;;;18.70;14.05;;;19.10;99.90;;;;;;5024705;28;20785;-75
2023/08/15 04:40:14;;;;;;;20.10;14.57;;;19.10;99.90;;;;;;5025671;28;20048;-76
2023/08/15 04:42:41;;;;;;;19.15;13.38;;;19.10;99.90;;;;;;5023134;28;20036;-75
2023/08/15 04:45:08;;;;;;;20.48;13.57;;;19.10;99.90;;;;;;5035544;28;20478;-76
2023/08/15 04:47:34;;;;;;;20.38;12.70;;;19.20;99.90;;;;;;5040234;28;20091;-77
2023/08/15 04:50:00;;;;;;;22.75;12.77;;;19.10;99.90;;;;;;5070497;28;20038;-76
2023/08/15 04:52:25;;;;;;;19.00;14.10;;;19.10;99.90;;;;;;5036586;28;20052;-77
2023/08/15 04:54:51;;;;;;;25.77;13.55;;;19.10;99.90;;;;;;5053435;28;20876;-76
2023/08/15 04:57:17;;;;;;;21.13;12.93;;;19.10;99.90;;;;;;5034171;28;20406;-77
2023/08/15 04:59:43;;;;;;;19.67;13.27;;;19.10;99.90;;;;;;4993009;28;20041;-76
2023/08/15 05:02:09;;;;;;;18.45;11.23;;;19.10;99.90;;;;;;5019113;28;20542;-75
2023/08/15 05:04:34;;;;;;;20.08;13.43;;;19.00;99.90;;;;;;5043006;28;20037;-75
2023/08/15 05:07:00;;;;;;;17.00;12.63;;;19.00;99.90;;;;;;5026276;28;20033;-76
2023/08/15 05:09:30;;;;;;;21.27;12.85;;;19.00;99.90;;;;;;5052392;28;20379;-76
2023/08/15 05:11:56;;;;;;;22.52;13.30;;;19.00;99.90;;;;;;5027699;28;20505;-75
2023/08/15 05:14:22;;;;;;;21.65;12.63;;;19.00;99.90;;;;;;5075263;28;20041;-76
2023/08/15 05:16:48;;;;;;;20.08;13.38;;;19.00;99.90;;;;;;5061052;28;20048;-76
2023/08/15 05:19:14;;;;;;;18.63;13.07;;;19.00;99.90;;;;;;5035539;28;20454;-76
2023/08/15 05:21:41;;;;;;;19.75;13.07;;;19.00;99.90;;;;;;5043783;28;20045;-76
2023/08/15 05:24:07;;;;;;;17.77;12.77;;;19.00;99.90;;;;;;5022273;28;20060;-76
2023/08/15 05:26:33;;;;;;;26.75;13.10;;;19.10;99.90;;;;;;5041836;28;20414;-75
2023/08/15 05:28:59;;;;;;;20.60;13.32;;;19.10;99.90;;;;;;5060217;28;20036;-75
2023/08/15 05:31:24;;;;;;;22.00;14.38;;;19.10;99.90;;;;;;5040059;28;20494;-76
2023/08/15 05:33:50;;;;;;;21.88;14.50;;;19.10;99.90;;;;;;5059875;28;20041;-76
2023/08/15 05:36:16;;;;;;;18.48;13.52;;;19.10;99.90;;;;;;5024121;28;20036;-76
2023/08/15 05:38:42;;;;;;;20.52;14.07;;;19.00;99.90;;;;;;5028264;28;20051;-76
2023/08/15 05:41:07;;;;;;;19.90;13.75;;;19.10;99.90;;;;;;5019823;28;20402;-75
2023/08/15 05:43:33;;;;;;;18.30;13.43;;;19.10;99.90;;;;;;5077964;28;20041;-75
2023/08/15 05:45:59;;;;;;;17.73;13.10;;;19.10;99.90;;;;;;5040855;28;20063;-75
2023/08/15 05:48:24;;;;;;;22.05;14.00;;;19.00;99.90;;;;;;5040908;28;20041;-75
2023/08/15 05:50:50;;;;;;;19.10;12.73;;;19.00;99.90;;;;;;5039008;28;20037;-77
2023/08/15 05:53:16;;;;;;;20.95;12.65;;;19.00;99.90;;;;;;5023370;28;20037;-76
2023/08/15 05:55:45;;;;;;;22.33;13.40;;;19.00;99.90;;;;;;5027426;28;20041;-76
2023/08/15 05:58:11;;;;;;;21.63;13.05;;;19.00;99.90;;;;;;5075054;28;20187;-77
2023/08/15 06:00:37;;;;;;;17.83;13.02;;;18.90;99.90;;;;;;5055956;28;20643;-75
2023/08/15 06:03:04;;;;;;;16.17;11.68;;;18.90;99.90;;;;;;5042612;28;20046;-75
2023/08/15 06:05:30;;;;;;;19.38;11.40;;;18.90;99.90;;;;;;5048768;28;20029;-76
2023/08/15 06:07:56;;;;;;;14.82;10.80;;;18.90;99.90;;;;;;5016071;28;20084;-76
2023/08/15 06:10:22;;;;;;;13.10;9.82;;;18.90;99.90;;;;;;5029112;28;20075;-75
2023/08/15 06:12:48;;;;;;;15.70;10.13;;;18.80;99.90;;;;;;5032238;28;20033;-75
2023/08/15 06:15:14;;;;;;;15.45;9.40;;;18.80;99.90;;;;;;5030369;28;20048;-75
2023/08/15 06:17:41;;;;;;;14.63;10.23;;;18.70;99.90;;;;;;5010945;28;20042;-75
2023/08/15 06:20:08;;;;;;;17.48;9.63;;;18.70;99.90;;;;;;5016198;28;20041;-75
2023/08/15 06:22:33;;;;;;;13.38;9.40;;;18.70;99.90;;;;;;5012359;28;20037;-75
2023/08/15 06:24:59;;;;;;;17.48;10.60;;;18.70;99.90;;;;;;5032182;28;20131;-75
2023/08/15 06:27:25;;;;;;;15.60;9.60;;;18.60;99.90;;;;;;5027167;28;20053;-75
2023/08/15 06:29:51;;;;;;;14.02;10.10;;;18.60;99.90;;;;;;5036088;28;20048;-75
2023/08/15 06:32:28;;;;;;;14.98;9.65;;;18.60;99.90;;;;;;5031870;28;20041;-76
2023/08/15 06:34:54;;;;;;;17.02;9.50;;;18.60;99.90;;;;;;5032098;28;20041;-75
2023/08/15 06:37:19;;;;;;;16.48;10.02;;;18.50;99.90;;;;;;5015238;28;20464;-75
2023/08/15 06:39:45;;;;;;;17.58;9.80;;;18.50;99.90;;;;;;5015872;28;20043;-75
2023/08/15 06:42:11;;;;;;;17.23;10.10;;;18.50;99.90;;;;;;5015404;28;20125;-75
2023/08/15 06:44:37;;;;;;;16.75;9.52;;;18.50;99.90;;;;;;5014636;28;20037;-75
2023/08/15 06:47:03;;;;;;;15.15;9.68;;;18.50;99.90;;;;;;4998845;28;20041;-75
2023/08/15 06:49:28;;;;;;;15.45;10.02;;;18.60;99.90;;;;;;5027300;28;20121;-75
2023/08/15 06:51:54;;;;;;;17.02;10.38;;;18.50;99.90;;;;;;5033032;28;20124;-75
2023/08/15 06:54:20;;;;;;;17.27;9.25;;;18.60;99.90;;;;;;5031570;28;20452;-75
2023/08/15 06:56:46;;;;;;;15.85;10.13;;;18.60;99.90;;;;;;4979918;28;20045;-75
2023/08/15 06:59:12;;;;;;;15.98;9.27;;;18.60;99.90;;;;;;5053306;28;20037;-74
2023/08/15 07:01:37;;;;;;;18.52;8.48;;;18.80;99.90;;;;;;5064102;28;20041;-74
2023/08/15 07:04:03;;;;;;;12.98;8.65;;;18.90;99.90;;;;;;5033008;28;20086;-74
2023/08/15 07:06:29;;;;;;;12.65;7.75;;;19.00;99.90;;;;;;5014938;28;20042;-74
2023/08/15 07:08:55;;;;;;;15.10;7.47;;;19.10;99.90;;;;;;5035450;28;20040;-75
2023/08/15 07:11:21;;;;;;;17.17;8.70;;;19.20;99.90;;;;;;5040814;28;20067;-74
2023/08/15 07:13:46;;;;;;;10.57;7.30;;;19.30;99.90;;;;;;5012149;28;20478;-74
2023/08/15 07:16:12;;;;;;;14.50;8.23;;;19.50;99.90;;;;;;5020169;28;20041;-74
2023/08/15 07:18:38;;;;;;;15.02;7.45;;;19.60;99.90;;;;;;5022714;28;20099;-75
2023/08/15 07:21:04;;;;;;;12.35;6.22;;;19.70;99.90;;;;;;5034557;28;20041;-74
2023/08/15 07:23:30;;;;;;;15.30;5.95;;;19.80;99.90;;;;;;5041799;28;20044;-74
2023/08/15 07:25:56;;;;;;;9.98;6.00;;;19.90;99.90;;;;;;5012790;28;20115;-74
2023/08/15 07:28:22;;;;;;;16.10;6.03;;;20.00;99.90;;;;;;5031310;28;20045;-75
2023/08/15 07:30:48;;;;;;;12.32;5.88;;;20.10;99.90;;;;;;5030579;28;20042;-75
2023/08/15 07:33:15;;;;;;;8.98;5.13;;;20.20;99.90;;;;;;5046012;28;20042;-76
2023/08/15 07:35:41;;;;;;;14.35;5.55;;;20.30;99.90;;;;;;5027238;28;20045;-75
2023/08/15 07:38:07;;;;;;;9.90;5.28;;;20.40;99.90;;;;;;5030733;28;20045;-74
2023/08/15 07:40:33;;;;;;;14.18;5.10;;;20.50;99.90;;;;;;5030867;28;20095;-75
2023/08/15 07:42:58;;;;;;;9.95;4.60;;;20.60;99.90;;;;;;5043106;28;20078;-75
2023/08/15 07:45:24;;;;;;;5.80;3.85;;;20.60;99.90;;;;;;5031302;28;20077;-75
2023/08/15 07:47:55;;;;;;;7.80;4.43;;;20.70;99.90;;;;;;5045751;28;20091;-75
2023/08/15 07:50:24;;;;;;;8.20;4.60;;;20.80;99.90;;;;;;5063381;28;20099;-74
2023/08/15 07:52:50;;;;;;;14.77;5.60;;;20.90;99.90;;;;;;5020691;28;20103;-75
2023/08/15 07:55:16;;;;;;;12.23;4.18;;;20.90;99.90;;;;;;5033525;28;20048;-75
2023/08/15 07:57:45;;;;;;;10.23;4.57;;;21.00;99.90;;;;;;5014766;28;20045;-74
2023/08/15 08:00:12;;;;;;;8.45;4.18;;;21.00;99.90;;;;;;5014095;28;20084;-74
2023/08/15 08:02:39;;;;;;;11.75;3.97;;;21.20;99.90;;;;;;5015690;28;20037;-77
2023/08/15 08:05:07;;;;;;;8.73;4.07;;;21.30;99.90;;;;;;5032052;28;20052;-76
2023/08/15 08:07:34;;;;;;;10.35;4.28;;;21.30;99.90;;;;;;5016570;28;20033;-77
2023/08/15 08:10:00;;;;;;;6.72;3.63;;;21.40;99.90;;;;;;5010506;28;20076;-76
2023/08/15 08:12:27;;;;;;;8.65;3.78;;;21.60;99.90;;;;;;5034337;28;20129;-77
2023/08/15 08:14:52;;;;;;;7.10;3.67;;;21.70;99.90;;;;;;5013988;28;20065;-81
2023/08/15 08:17:18;;;;;;;11.93;4.13;;;21.80;99.90;;;;;;5032462;28;20073;-81
2023/08/15 08:19:44;;;;;;;9.40;3.75;;;21.90;99.90;;;;;;5015326;28;20045;-82
2023/08/15 08:22:09;;;;;;;9.18;3.45;;;21.90;99.90;;;;;;5053681;28;20045;-82
2023/08/15 08:24:35;;;;;;;8.38;3.53;;;21.80;99.90;;;;;;5033049;28;20037;-81
2023/08/15 08:27:01;;;;;;;8.05;4.15;;;21.70;99.90;;;;;;5032646;28;20055;-81
2023/08/15 08:29:27;;;;;;;9.10;4.05;;;21.70;99.90;;;;;;4999247;28;20044;-82
2023/08/15 08:31:52;;;;;;;9.20;3.40;;;21.60;99.90;;;;;;5053005;28;20052;-82
2023/08/15 08:34:18;;;;;;;8.52;3.72;;;21.60;99.90;;;;;;5053523;28;20124;-78
2023/08/15 08:36:44;;;;;;;10.48;3.65;;;21.60;99.90;;;;;;5050107;28;20040;-82
2023/08/15 08:39:11;;;;;;;6.90;3.70;;;21.60;99.90;;;;;;5035319;28;20036;-82
2023/08/15 08:41:38;;;;;;;10.60;3.70;;;21.60;99.90;;;;;;5030158;28;20029;-80
2023/08/15 08:44:05;;;;;;;7.40;3.30;;;21.50;99.90;;;;;;5017551;28;20041;-80
2023/08/15 08:46:31;;;;;;;7.47;3.45;;;21.30;99.90;;;;;;5041859;28;20634;-81
2023/08/15 08:48:58;;;;;;;8.85;3.72;;;21.20;99.90;;;;;;5015227;28;20036;-79
2023/08/15 08:51:27;;;;;;;6.60;3.65;;;21.10;99.90;;;;;;5011850;28;20493;-81
2023/08/15 08:53:54;;;;;;;8.50;4.22;;;20.90;99.90;;;;;;5049856;28;20037;-80
2023/08/15 08:56:29;;;;;;;10.57;4.38;;;21.00;99.90;;;;;;5022937;28;20049;-81
2023/08/15 08:59:00;;;;;;;6.53;3.92;;;21.10;99.90;;;;;;5049126;28;20461;-79
2023/08/15 09:01:35;;;;;;;5.43;4.20;;;21.00;99.90;;;;;;4997910;28;20100;-80
2023/08/15 09:04:01;;;;;;;9.70;4.72;;;21.10;99.90;;;;;;5005374;28;20038;-80
2023/08/15 09:06:27;;;;;;;6.43;4.13;;;21.20;99.90;;;;;;4988833;28;20038;-80
2023/08/15 09:08:53;;;;;;;6.65;3.90;;;21.30;99.90;;;;;;5037249;28;20163;-81
2023/08/15 09:11:20;;;;;;;7.80;5.47;;;21.40;99.90;;;;;;5034123;28;20044;-80
2023/08/15 09:13:50;;;;;;;9.95;5.15;;;21.40;99.90;;;;;;5002743;28;20042;-80
2023/08/15 09:16:16;;;;;;;11.68;6.07;;;21.30;99.90;;;;;;5010990;28;20057;-80
2023/08/15 09:18:43;;;;;;;9.90;5.80;;;21.30;99.90;;;;;;5036922;28;20041;-80
2023/08/15 09:21:11;;;;;;;14.15;5.97;;;21.30;99.90;;;;;;4992660;28;20491;-81
2023/08/15 09:23:41;;;;;;;11.32;7.20;;;21.20;99.90;;;;;;5010992;28;20063;-81
2023/08/15 09:26:16;;;;;;;10.18;6.45;;;21.10;99.90;;;;;;5008933;28;20140;-81
2023/08/15 09:28:42;;;;;;;8.57;5.60;;;21.10;99.90;;;;;;5013028;28;20055;-80
2023/08/15 09:31:10;;;;;;;11.13;7.05;;;21.10;99.90;;;;;;5018063;28;20061;-80
2023/08/15 09:33:37;;;;;;;11.48;7.10;;;21.20;99.90;;;;;;5018803;28;20052;-79
2023/08/15 09:36:05;;;;;;;11.63;7.22;;;21.30;99.90;;;;;;5035180;28;20054;-76
2023/08/15 09:38:31;;;;;;;8.27;6.78;;;21.40;99.90;;;;;;5047722;28;20044;-76
2023/08/15 09:40:57;;;;;;;9.15;6.50;;;21.50;99.90;;;;;;5018222;28;20981;-77
2023/08/15 09:43:23;;;;;;;10.65;7.13;;;21.60;99.90;;;;;;5020623;28;20045;-76
2023/08/15 09:45:49;;;;;;;8.82;6.53;;;21.80;99.90;;;;;;5049971;28;20045;-76
2023/08/15 09:48:22;;;;;;;10.45;6.78;;;22.00;99.90;;;;;;5000521;28;20030;-76
2023/08/15 09:50:49;;;;;;;9.90;7.15;;;22.00;99.90;;;;;;5020055;28;20077;-77
2023/08/15 09:53:15;;;;;;;13.23;6.93;;;21.80;99.90;;;;;;5003302;28;20120;-76
2023/08/15 09:55:44;;;;;;;10.60;6.68;;;21.70;99.90;;;;;;5019918;28;20041;-76
2023/08/15 09:58:10;;;;;;;11.95;6.53;;;21.60;99.90;;;;;;5020207;28;20037;-77
2023/08/15 10:00:36;;;;;;;10.77;6.07;;;21.60;99.90;;;;;;5019492;28;20065;-77
2023/08/15 10:03:18;;;;;;;9.95;5.25;;;21.50;99.90;;;;;;5020464;28;20046;-75
2023/08/15 10:05:49;;;;;;;7.07;5.20;;;21.40;99.90;;;;;;5033649;28;20083;-76
2023/08/15 10:08:18;;;;;;;10.73;5.03;;;21.40;99.90;;;;;;5020430;28;20037;-75
2023/08/15 10:10:44;;;;;;;6.07;3.63;;;21.40;99.90;;;;;;5002340;28;20089;-76
2023/08/15 10:13:10;;;;;;;7.72;4.35;;;21.40;99.90;;;;;;5020505;28;20080;-77
2023/08/15 10:15:37;;;;;;;7.53;3.72;;;21.40;99.90;;;;;;4985335;28;20041;-77
2023/08/15 10:18:04;;;;;;;7.88;4.00;;;21.40;99.90;;;;;;5000545;28;20050;-76
2023/08/15 10:20:36;;;;;;;8.43;3.75;;;21.30;99.90;;;;;;5001768;28;20773;-77
2023/08/15 10:23:03;;;;;;;7.30;2.80;;;21.30;99.90;;;;;;4997850;28;20056;-78
2023/08/15 10:25:39;;;;;;;9.50;3.45;;;21.30;99.90;;;;;;5016545;28;20029;-77
2023/08/15 10:28:11;;;;;;;7.20;3.30;;;21.50;99.90;;;;;;5028915;28;20064;-77
2023/08/15 10:30:46;;;;;;;6.35;2.92;;;21.60;99.90;;;;;;5005880;28;20050;-76
2023/08/15 10:33:14;;;;;;;6.00;3.00;;;21.70;99.90;;;;;;5002641;28;20033;-78
2023/08/15 10:35:55;;;;;;;10.20;3.10;;;21.90;99.90;;;;;;5013292;28;20054;-79
2023/08/15 10:38:22;;;;;;;10.90;3.15;;;22.10;99.90;;;;;;4996227;28;20045;-77
2023/08/15 10:40:51;;;;;;;9.40;3.33;;;22.20;99.90;;;;;;4996268;28;20184;-76
2023/08/15 10:43:17;;;;;;;4.90;2.90;;;22.40;99.90;;;;;;5001806;28;20123;-78
2023/08/15 10:45:52;;;;;;;5.18;2.70;;;22.60;99.90;;;;;;5019354;28;20034;-78
2023/08/15 10:48:37;;;;;;;7.13;3.10;;;22.80;99.90;;;;;;4987486;28;20050;-77
2023/08/15 10:51:04;;;;;;;6.25;2.70;;;22.90;99.90;;;;;;5036444;28;20518;-79
2023/08/15 10:53:30;;;;;;;7.20;2.90;;;23.10;99.90;;;;;;5033648;28;20055;-79
2023/08/15 10:55:58;;;;;;;5.40;2.53;;;23.30;99.90;;;;;;5022693;28;20041;-78
2023/08/15 10:58:25;;;;;;;8.73;2.70;;;23.40;99.90;;;;;;4989367;28;20042;-79
2023/08/15 11:00:51;;;;;;;4.50;2.22;;;23.50;99.90;;;;;;5020712;28;20494;-77
2023/08/15 11:03:17;;;;;;;4.93;2.55;;;23.50;99.90;;;;;;4986565;28;20084;-78
2023/08/15 11:05:43;;;;;;;8.10;2.53;;;23.20;99.90;;;;;;4986955;28;20128;-79
2023/08/15 11:08:13;;;;;;;5.38;2.67;;;23.00;99.90;;;;;;5005331;28;20499;-78
2023/08/15 11:10:50;;;;;;;6.00;2.20;;;22.80;99.90;;;;;;4987586;28;20465;-79
2023/08/15 11:13:17;;;;;;;7.60;2.38;;;22.70;99.90;;;;;;5035252;28;20034;-78
2023/08/15 11:15:46;;;;;;;3.83;2.35;;;22.70;99.90;;;;;;4998045;28;20107;-79
2023/08/15 11:18:22;;;;;;;3.55;2.22;;;22.70;99.90;;;;;;4986131;28;20103;-78
2023/08/15 11:20:48;;;;;;;5.85;2.78;;;22.70;99.90;;;;;;5023001;28;20111;-78
2023/08/15 11:23:15;;;;;;;6.45;2.63;;;22.70;99.90;;;;;;5009022;28;20073;-78
2023/08/15 11:25:41;;;;;;;6.57;2.63;;;22.70;99.90;;;;;;5026584;28;20044;-77
2023/08/15 11:28:07;;;;;;;6.40;2.83;;;22.80;99.90;;;;;;5010087;28;20049;-78
2023/08/15 11:30:34;;;;;;;5.68;2.60;;;22.90;99.90;;;;;;4998961;28;20068;-78
2023/08/15 11:33:00;;;;;;;6.50;2.55;;;23.10;99.90;;;;;;5010816;28;20129;-78
2023/08/15 11:35:26;;;;;;;7.32;2.75;;;23.30;99.90;;;;;;5000999;28;20041;-76
2023/08/15 11:37:51;;;;;;;4.32;2.70;;;23.40;99.90;;;;;;5017988;28;20049;-78
2023/08/15 11:40:17;;;;;;;7.80;2.72;;;23.50;99.90;;;;;;4996703;28;20046;-78
2023/08/15 11:42:43;;;;;;;4.22;2.60;;;23.60;99.90;;;;;;5013589;28;21015;-77
2023/08/15 11:45:19;;;;;;;5.00;2.72;;;23.70;99.90;;;;;;4993556;28;20187;-77
2023/08/15 11:48:02;;;;;;;8.13;2.63;;;23.70;99.90;;;;;;5023157;28;20037;-76
2023/08/15 11:50:33;;;;;;;5.15;2.92;;;23.70;99.90;;;;;;5015872;28;20046;-78
2023/08/15 11:53:07;;;;;;;3.88;2.63;;;23.60;99.90;;;;;;5018063;28;20046;-78
2023/08/15 11:55:35;;;;;;;5.65;2.38;;;23.50;99.90;;;;;;5018235;28;20041;-79
2023/08/15 11:58:02;;;;;;;5.97;2.45;;;23.50;99.90;;;;;;5013230;28;20056;-78
2023/08/15 12:00:27;;;;;;;8.30;3.28;;;23.50;99.90;;;;;;5004195;28;20410;-78
2023/08/15 12:02:54;;;;;;;5.00;2.60;;;23.50;99.90;;;;;;5006705;28;20055;-80
2023/08/15 12:05:21;;;;;;;6.13;2.60;;;23.60;99.90;;;;;;4999384;28;20044;-79
2023/08/15 12:07:48;;;;;;;4.13;2.78;;;23.70;99.90;;;;;;5015797;28;20107;-78
2023/08/15 12:10:16;;;;;;;6.47;2.83;;;23.80;99.90;;;;;;5018045;28;20079;-77
2023/08/15 12:12:44;;;;;;;6.13;2.90;;;23.80;99.90;;;;;;5018328;28;20510;-78
2023/08/15 12:15:11;;;;;;;8.57;2.45;;;23.90;99.90;;;;;;5039045;28;20056;-78
2023/08/15 12:17:38;;;;;;;6.15;2.63;;;23.90;99.90;;;;;;4989853;28;20042;-78
2023/08/15 12:20:06;;;;;;;5.45;2.50;;;24.00;99.90;;;;;;5021145;28;20045;-77
2023/08/15 12:22:33;;;;;;;5.15;2.80;;;24.10;99.90;;;;;;5020884;28;20057;-77
2023/08/15 12:24:59;;;;;;;5.43;2.58;;;24.20;99.90;;;;;;5021073;28;20462;-78
2023/08/15 12:27:25;;;;;;;4.72;2.75;;;24.30;99.90;;;;;;5021814;28;20736;-77
2023/08/15 12:29:50;;;;;;;8.60;3.05;;;24.40;99.90;;;;;;5020895;28;20491;-78
2023/08/15 12:32:16;;;;;;;6.05;2.72;;;24.40;99.90;;;;;;5006539;28;20716;-79
2023/08/15 12:34:42;;;;;;;6.93;3.47;;;24.30;99.90;;;;;;5020393;28;20414;-78
2023/08/15 12:37:08;;;;;;;5.28;3.13;;;24.20;99.90;;;;;;5005208;28;20041;-78
2023/08/15 12:39:34;;;;;;;8.88;2.75;;;24.10;99.90;;;;;;5004904;28;20091;-76